Time;durP1;ratioP1;P1;durP2;ratioP2;P2;SDS_P1;SDS_P2;PMS_P1;PMS_P2;Temp;Humidity;BMP_temperature;BMP_pressure;BME280_temperature;BME280_humidity;BME280_pressure;Samples;Min_cycle;Max_cycle;Signal;HPM_P1;HPM_P2
2022/02/13 00:01:03;;;;;;;14.40;9.00;;;3.20;99.90;;;;;;5075318;27;39676;-80
2022/02/13 00:03:29;;;;;;;20.33;10.10;;;3.20;99.90;;;;;;5075623;27;39379;-80
2022/02/13 00:05:56;;;;;;;19.57;9.93;;;3.10;99.90;;;;;;5070817;27;39844;-80
2022/02/13 00:08:22;;;;;;;17.27;9.03;;;3.10;99.90;;;;;;5070861;28;38150;-80
2022/02/13 00:10:50;;;;;;;18.37;9.33;;;3.10;99.90;;;;;;5072357;27;39256;-81
2022/02/13 00:13:16;;;;;;;18.43;9.07;;;3.10;99.90;;;;;;5073872;27;38664;-80
2022/02/13 00:15:42;;;;;;;17.07;8.97;;;3.10;99.90;;;;;;5080708;27;38217;-81
2022/02/13 00:18:08;;;;;;;20.57;9.50;;;3.00;99.90;;;;;;5078555;27;38041;-79
2022/02/13 00:20:34;;;;;;;14.97;9.07;;;3.10;99.90;;;;;;5069163;27;40760;-80
2022/02/13 00:23:00;;;;;;;18.53;9.60;;;3.00;99.90;;;;;;5073851;28;39918;-79
2022/02/13 00:25:26;;;;;;;20.43;9.40;;;3.00;99.90;;;;;;5073820;27;39307;-81
2022/02/13 00:27:52;;;;;;;18.20;8.97;;;3.00;99.90;;;;;;5070905;28;38158;-79
2022/02/13 00:30:19;;;;;;;18.43;10.57;;;3.10;99.90;;;;;;5075271;27;38607;-80
2022/02/13 00:32:45;;;;;;;15.23;9.27;;;3.00;99.90;;;;;;5070839;27;38575;-79
2022/02/13 00:35:13;;;;;;;21.47;10.60;;;3.00;99.90;;;;;;5074257;27;37955;-79
2022/02/13 00:37:39;;;;;;;17.70;9.20;;;3.00;99.90;;;;;;5075681;28;36970;-80
2022/02/13 00:40:06;;;;;;;16.67;9.27;;;3.00;99.90;;;;;;5074389;27;38929;-80
2022/02/13 00:42:33;;;;;;;18.30;9.53;;;3.00;99.90;;;;;;5074970;27;38729;-80
2022/02/13 00:45:00;;;;;;;19.30;9.67;;;3.00;99.90;;;;;;5076082;27;38205;-81
2022/02/13 00:47:26;;;;;;;18.60;9.10;;;3.10;99.90;;;;;;5073959;27;36322;-79
2022/02/13 00:49:52;;;;;;;23.23;9.20;;;3.00;99.90;;;;;;5070559;28;42149;-80
2022/02/13 00:52:19;;;;;;;15.30;8.90;;;3.00;99.90;;;;;;5074780;28;38991;-80
2022/02/13 00:54:45;;;;;;;20.50;9.93;;;3.10;99.90;;;;;;5073731;28;35742;-79
2022/02/13 00:57:11;;;;;;;15.60;8.43;;;3.00;99.90;;;;;;5077455;27;36484;-80
2022/02/13 00:59:37;;;;;;;15.60;9.27;;;3.10;99.90;;;;;;5076502;27;38096;-80
2022/02/13 01:02:04;;;;;;;17.03;7.63;;;3.10;99.90;;;;;;5074426;28;39243;-80
2022/02/13 01:04:30;;;;;;;14.07;8.30;;;3.20;99.90;;;;;;5075380;27;39685;-80
2022/02/13 01:06:57;;;;;;;16.43;8.30;;;3.20;99.90;;;;;;5073098;27;38010;-80
2022/02/13 01:09:23;;;;;;;14.87;8.23;;;3.20;99.90;;;;;;5075629;27;39475;-81
2022/02/13 01:11:49;;;;;;;17.50;8.03;;;3.20;99.90;;;;;;5074112;28;38541;-80
2022/02/13 01:14:16;;;;;;;14.93;9.07;;;3.20;99.90;;;;;;5069818;28;40896;-80
2022/02/13 01:16:42;;;;;;;15.53;8.00;;;3.20;99.90;;;;;;5078654;28;37674;-80
2022/02/13 01:19:08;;;;;;;14.97;8.07;;;3.20;99.90;;;;;;5077523;27;40004;-82
2022/02/13 01:21:35;;;;;;;12.60;8.50;;;3.10;99.90;;;;;;5071062;27;37673;-80
2022/02/13 01:24:01;;;;;;;15.60;8.77;;;3.10;99.90;;;;;;5074209;28;37763;-80
2022/02/13 01:26:27;;;;;;;11.70;7.73;;;3.10;99.90;;;;;;5071267;27;37626;-81
2022/02/13 01:28:53;;;;;;;17.67;7.87;;;3.10;99.90;;;;;;5075906;28;39309;-79
2022/02/13 01:31:19;;;;;;;16.77;7.57;;;3.10;99.90;;;;;;5063098;27;39085;-80
2022/02/13 01:33:46;;;;;;;16.30;8.27;;;3.10;99.90;;;;;;5071263;28;39406;-80
2022/02/13 01:36:12;;;;;;;12.23;7.97;;;3.10;99.90;;;;;;5074843;28;37270;-79
2022/02/13 01:38:39;;;;;;;17.13;8.00;;;3.10;99.90;;;;;;5069368;28;39589;-80
2022/02/13 01:41:05;;;;;;;18.37;8.60;;;3.00;99.90;;;;;;5075769;27;38288;-80
2022/02/13 01:43:31;;;;;;;13.33;8.00;;;3.00;99.90;;;;;;5071956;28;39768;-81
2022/02/13 01:45:57;;;;;;;14.23;8.10;;;3.00;99.90;;;;;;5076300;27;36723;-81
2022/02/13 01:48:24;;;;;;;16.30;7.83;;;3.00;99.90;;;;;;5067256;28;37678;-81
2022/02/13 01:50:51;;;;;;;13.77;7.50;;;3.00;99.90;;;;;;5071167;28;39097;-81
2022/02/13 01:53:18;;;;;;;12.37;7.60;;;3.00;99.90;;;;;;5068551;28;38994;-80
2022/02/13 01:55:49;;;;;;;17.40;8.70;;;3.00;99.90;;;;;;5072783;27;37266;-80
2022/02/13 01:58:16;;;;;;;18.97;8.20;;;2.90;99.90;;;;;;5073233;27;38514;-80
2022/02/13 02:00:42;;;;;;;12.40;8.10;;;2.90;99.90;;;;;;5070450;28;38330;-80
2022/02/13 02:03:09;;;;;;;13.17;8.20;;;2.90;99.90;;;;;;5073674;27;38624;-80
2022/02/13 02:05:35;;;;;;;16.30;8.30;;;2.80;99.90;;;;;;5075658;27;37038;-81
2022/02/13 02:08:02;;;;;;;17.67;8.37;;;2.90;99.90;;;;;;5070379;27;38754;-80
2022/02/13 02:10:29;;;;;;;14.03;8.33;;;2.90;99.90;;;;;;5075643;27;39313;-80
2022/02/13 02:12:55;;;;;;;11.57;7.77;;;2.90;99.90;;;;;;5078031;27;38092;-79
2022/02/13 02:15:21;;;;;;;14.73;8.10;;;2.90;99.90;;;;;;5067989;27;38955;-80
2022/02/13 02:17:48;;;;;;;17.10;8.03;;;2.90;99.90;;;;;;5070932;27;39767;-80
2022/02/13 02:20:14;;;;;;;14.80;7.70;;;2.90;99.90;;;;;;5073142;28;39835;-80
2022/02/13 02:22:55;;;;;;;14.23;7.90;;;2.90;99.90;;;;;;5081464;28;37092;-80
2022/02/13 02:25:22;;;;;;;11.10;7.40;;;2.90;99.90;;;;;;5072414;28;37917;-80
2022/02/13 02:27:48;;;;;;;12.53;7.13;;;3.00;99.90;;;;;;5073198;27;38961;-80
2022/02/13 02:30:14;;;;;;;13.07;7.80;;;2.90;99.90;;;;;;5069737;27;39387;-80
2022/02/13 02:32:40;;;;;;;13.17;7.27;;;2.90;99.90;;;;;;5071643;27;38519;-80
2022/02/13 02:35:07;;;;;;;12.53;7.73;;;2.80;99.90;;;;;;5070362;27;37936;-79
2022/02/13 02:37:33;;;;;;;13.77;7.97;;;2.80;99.90;;;;;;5072170;28;39618;-79
2022/02/13 02:39:59;;;;;;;14.80;8.30;;;2.80;99.90;;;;;;5073250;28;38081;-79
2022/02/13 02:42:26;;;;;;;14.27;7.80;;;2.80;99.90;;;;;;5066510;28;37091;-79
2022/02/13 02:44:52;;;;;;;13.93;8.43;;;2.80;99.90;;;;;;5073326;27;36840;-80
2022/02/13 02:47:18;;;;;;;11.97;7.27;;;2.80;99.90;;;;;;5074188;28;38813;-79
2022/02/13 02:49:44;;;;;;;11.73;7.43;;;2.70;99.90;;;;;;5073828;28;39804;-79
2022/02/13 02:52:10;;;;;;;13.73;8.23;;;2.70;99.90;;;;;;5067594;28;36782;-81
2022/02/13 02:54:36;;;;;;;17.87;8.00;;;2.70;99.90;;;;;;5071293;28;36399;-80
2022/02/13 02:57:03;;;;;;;13.10;9.00;;;2.70;99.90;;;;;;5071306;27;39309;-80
2022/02/13 02:59:29;;;;;;;11.53;8.13;;;2.70;99.90;;;;;;5070400;28;38345;-81
2022/02/13 03:01:55;;;;;;;13.80;8.20;;;2.70;99.90;;;;;;5071400;27;38386;-79
2022/02/13 03:04:21;;;;;;;14.47;9.00;;;2.70;99.90;;;;;;5070493;27;38607;-80
2022/02/13 03:06:47;;;;;;;11.87;8.27;;;2.70;99.90;;;;;;5070076;27;38496;-79
2022/02/13 03:09:13;;;;;;;13.87;8.47;;;2.60;99.90;;;;;;5074448;28;38109;-80
2022/02/13 03:11:39;;;;;;;17.53;8.60;;;2.60;99.90;;;;;;5072861;27;36853;-79
2022/02/13 03:14:05;;;;;;;14.93;8.50;;;2.60;99.90;;;;;;5070810;27;39070;-80
2022/02/13 03:16:32;;;;;;;12.87;8.23;;;2.60;99.90;;;;;;5071752;27;39255;-80
2022/02/13 03:18:58;;;;;;;13.50;8.37;;;2.60;99.90;;;;;;5079431;27;38913;-80
2022/02/13 03:21:24;;;;;;;17.30;9.10;;;2.60;99.90;;;;;;5071872;27;38705;-80
2022/02/13 03:23:50;;;;;;;13.83;8.17;;;2.50;99.90;;;;;;5075456;28;36981;-80
2022/02/13 03:26:16;;;;;;;12.30;8.43;;;2.50;99.90;;;;;;5074924;27;38296;-80
2022/02/13 03:28:42;;;;;;;12.57;7.97;;;2.50;99.90;;;;;;5078223;28;37203;-80
2022/02/13 03:31:08;;;;;;;13.87;8.33;;;2.50;99.90;;;;;;5072631;27;37154;-79
2022/02/13 03:33:34;;;;;;;18.57;8.60;;;2.50;99.90;;;;;;5080389;27;37161;-80
2022/02/13 03:36:00;;;;;;;12.70;7.30;;;2.50;99.90;;;;;;5077356;27;38092;-82
2022/02/13 03:38:26;;;;;;;12.17;7.37;;;2.50;99.90;;;;;;5079788;27;38831;-81
2022/02/13 03:40:52;;;;;;;10.43;7.13;;;2.60;99.90;;;;;;5075217;28;37348;-80
2022/02/13 03:43:20;;;;;;;16.93;8.33;;;2.60;99.90;;;;;;5081457;28;36468;-80
2022/02/13 03:45:46;;;;;;;14.37;7.73;;;2.60;99.90;;;;;;5077583;27;39683;-80
2022/02/13 03:48:12;;;;;;;15.73;7.37;;;2.60;99.90;;;;;;5078268;28;38346;-79
2022/02/13 03:50:38;;;;;;;13.23;7.47;;;2.60;99.90;;;;;;5074999;27;37542;-79
2022/02/13 03:53:04;;;;;;;12.67;7.90;;;2.60;99.90;;;;;;5072965;27;36497;-79
2022/02/13 03:55:30;;;;;;;12.33;7.10;;;2.50;99.90;;;;;;5077955;27;37068;-81
2022/02/13 03:57:56;;;;;;;12.00;7.43;;;2.60;99.90;;;;;;5075356;27;38487;-79
2022/02/13 04:00:23;;;;;;;14.63;7.60;;;2.60;99.90;;;;;;5076250;27;38865;-81
2022/02/13 04:02:55;;;;;;;15.50;7.83;;;2.60;99.90;;;;;;5074384;27;37959;-81
2022/02/13 04:05:22;;;;;;;13.93;7.57;;;2.60;99.90;;;;;;5070186;27;39797;-79
2022/02/13 04:07:48;;;;;;;14.33;8.33;;;2.50;99.90;;;;;;5071611;27;37378;-80
2022/02/13 04:10:14;;;;;;;14.70;7.80;;;2.50;99.90;;;;;;5071849;27;38903;-79
2022/02/13 04:12:42;;;;;;;16.80;8.67;;;2.40;99.90;;;;;;5072582;27;37267;-80
2022/02/13 04:15:09;;;;;;;16.27;7.70;;;2.40;99.90;;;;;;5068972;27;37906;-80
2022/02/13 04:17:35;;;;;;;14.70;8.30;;;2.40;99.90;;;;;;5070494;27;39250;-80
2022/02/13 04:20:02;;;;;;;14.53;8.50;;;2.40;99.90;;;;;;5073071;27;39290;-79
2022/02/13 04:22:29;;;;;;;14.87;8.30;;;2.40;99.90;;;;;;5077396;27;36762;-80
2022/02/13 04:24:55;;;;;;;15.37;8.77;;;2.40;99.90;;;;;;5078600;28;39529;-81
2022/02/13 04:27:21;;;;;;;14.07;8.23;;;2.50;99.90;;;;;;5078195;27;38436;-80
2022/02/13 04:29:47;;;;;;;15.27;9.00;;;2.50;99.90;;;;;;5074841;28;38622;-80
2022/02/13 04:32:13;;;;;;;12.93;7.80;;;2.60;99.90;;;;;;5069529;28;36478;-80
2022/02/13 04:34:41;;;;;;;14.43;7.80;;;2.60;99.90;;;;;;5075476;28;40487;-80
2022/02/13 04:37:07;;;;;;;13.77;7.97;;;2.60;99.90;;;;;;5074294;27;39249;-80
2022/02/13 04:39:33;;;;;;;15.87;9.03;;;2.60;99.90;;;;;;5075691;28;36961;-80
2022/02/13 04:41:59;;;;;;;16.70;7.60;;;2.60;99.90;;;;;;5072390;28;36301;-80
2022/02/13 04:44:25;;;;;;;14.13;7.60;;;2.60;99.90;;;;;;5079077;27;38827;-80
2022/02/13 04:46:51;;;;;;;15.83;8.50;;;2.70;99.90;;;;;;5074796;28;39098;-81
2022/02/13 04:49:17;;;;;;;12.70;7.70;;;2.70;99.90;;;;;;5077030;28;38121;-80
2022/02/13 04:51:44;;;;;;;13.93;7.10;;;2.70;99.90;;;;;;5074461;27;37117;-80
2022/02/13 04:54:10;;;;;;;13.90;8.50;;;2.70;99.90;;;;;;5088805;27;40429;-80
2022/02/13 04:56:36;;;;;;;14.63;7.50;;;2.70;99.90;;;;;;5074581;27;38153;-80
2022/02/13 04:59:02;;;;;;;13.50;7.67;;;2.70;99.90;;;;;;5077378;28;38477;-80
2022/02/13 05:01:29;;;;;;;12.17;8.10;;;2.70;99.90;;;;;;5069870;28;38037;-80
2022/02/13 05:03:56;;;;;;;15.03;8.10;;;2.80;99.90;;;;;;5078379;28;39845;-80
2022/02/13 05:06:22;;;;;;;15.00;7.67;;;2.80;99.90;;;;;;5072178;27;37670;-80
2022/02/13 05:08:48;;;;;;;11.27;7.23;;;2.80;99.90;;;;;;5075026;27;38539;-82
2022/02/13 05:11:14;;;;;;;11.70;7.67;;;2.80;99.90;;;;;;5069026;27;36196;-79
2022/02/13 05:13:41;;;;;;;14.57;7.27;;;2.90;99.90;;;;;;5075867;27;40169;-80
2022/02/13 05:16:07;;;;;;;10.93;6.73;;;2.90;99.90;;;;;;5071608;27;38583;-79
2022/02/13 05:18:33;;;;;;;12.83;7.13;;;3.00;99.90;;;;;;5072291;28;37293;-80
2022/02/13 05:20:59;;;;;;;13.13;6.73;;;3.00;99.90;;;;;;5072089;27;37739;-80
2022/02/13 05:23:25;;;;;;;12.30;6.70;;;3.00;99.90;;;;;;5071317;27;40615;-79
2022/02/13 05:25:51;;;;;;;14.70;8.20;;;3.00;99.90;;;;;;5070266;28;38890;-80
2022/02/13 05:28:17;;;;;;;11.50;6.83;;;3.00;99.90;;;;;;5076385;27;38222;-79
2022/02/13 05:30:43;;;;;;;12.57;6.80;;;3.10;99.90;;;;;;5072405;28;37494;-79
2022/02/13 05:33:10;;;;;;;12.80;7.03;;;3.10;99.90;;;;;;5072825;28;36931;-79
2022/02/13 05:35:36;;;;;;;12.20;6.70;;;3.10;99.90;;;;;;5078369;28;39371;-80
2022/02/13 05:38:02;;;;;;;12.90;7.37;;;3.10;99.90;;;;;;5066918;28;39178;-79
2022/02/13 05:40:30;;;;;;;11.17;6.63;;;3.10;99.90;;;;;;5073177;27;37286;-81
2022/02/13 05:42:56;;;;;;;12.60;6.80;;;3.10;99.90;;;;;;5074726;27;39283;-80
2022/02/13 05:45:23;;;;;;;10.93;6.30;;;3.20;99.90;;;;;;5071456;27;38764;-79
2022/02/13 05:47:49;;;;;;;14.60;7.30;;;3.20;99.90;;;;;;5072799;28;38887;-80
2022/02/13 05:50:15;;;;;;;9.03;6.50;;;3.20;99.90;;;;;;5072090;27;37046;-79
2022/02/13 05:52:41;;;;;;;13.30;6.83;;;3.20;99.90;;;;;;5069482;28;37019;-80
2022/02/13 05:55:07;;;;;;;14.67;7.13;;;3.20;99.90;;;;;;5075923;27;39270;-79
2022/02/13 05:57:34;;;;;;;12.60;6.70;;;3.20;99.90;;;;;;5072058;27;39658;-80
2022/02/13 06:00:00;;;;;;;11.37;6.83;;;3.20;99.90;;;;;;5073862;28;38759;-77
2022/02/13 06:02:26;;;;;;;14.10;6.80;;;3.20;99.90;;;;;;5073890;28;38356;-80
2022/02/13 06:04:52;;;;;;;12.23;7.17;;;3.20;99.90;;;;;;5076785;28;38035;-80
2022/02/13 06:07:18;;;;;;;12.00;7.10;;;3.30;99.90;;;;;;5076141;27;38746;-79
2022/02/13 06:09:44;;;;;;;12.13;7.13;;;3.30;99.90;;;;;;5073101;27;37014;-80
2022/02/13 06:12:11;;;;;;;10.63;6.63;;;3.30;99.90;;;;;;5075835;27;39717;-80
2022/02/13 06:14:37;;;;;;;13.83;7.07;;;3.30;99.90;;;;;;5073155;27;40492;-80
2022/02/13 06:17:04;;;;;;;12.70;7.17;;;3.30;99.90;;;;;;5071417;27;37942;-81
2022/02/13 06:19:30;;;;;;;15.80;7.30;;;3.30;99.90;;;;;;5072504;28;37981;-79
2022/02/13 06:21:56;;;;;;;14.47;6.57;;;3.40;99.90;;;;;;5073345;27;39897;-80
2022/02/13 06:24:23;;;;;;;16.37;7.77;;;3.40;99.90;;;;;;5076185;28;39672;-81
2022/02/13 06:26:49;;;;;;;11.47;6.80;;;3.40;99.90;;;;;;5073830;27;37459;-80
2022/02/13 06:29:17;;;;;;;11.10;7.10;;;3.40;99.90;;;;;;5072491;27;36614;-80
2022/02/13 06:31:43;;;;;;;11.50;6.77;;;3.40;99.90;;;;;;5078161;27;39219;-80
2022/02/13 06:34:09;;;;;;;11.23;7.57;;;3.40;99.90;;;;;;5073650;28;39295;-80
2022/02/13 06:36:35;;;;;;;10.27;6.53;;;3.40;99.90;;;;;;5077367;28;38060;-80
2022/02/13 06:39:01;;;;;;;11.20;7.00;;;3.50;99.90;;;;;;5065627;28;37072;-80
2022/02/13 06:41:27;;;;;;;12.03;7.60;;;3.50;99.90;;;;;;5075796;27;38226;-81
2022/02/13 06:43:53;;;;;;;12.10;7.37;;;3.50;99.90;;;;;;5079708;28;38378;-80
2022/02/13 06:46:19;;;;;;;12.03;7.50;;;3.50;99.90;;;;;;5072062;28;38709;-80
2022/02/13 06:48:45;;;;;;;8.57;6.73;;;3.50;99.90;;;;;;5079399;27;36310;-80
2022/02/13 06:51:12;;;;;;;17.17;7.13;;;3.50;99.90;;;;;;5076879;27;39739;-82
2022/02/13 06:53:38;;;;;;;11.30;7.13;;;3.50;99.90;;;;;;5077785;28;38015;-80
2022/02/13 06:56:05;;;;;;;12.30;7.40;;;3.50;99.90;;;;;;5076738;27;39011;-80
2022/02/13 06:58:31;;;;;;;10.67;6.70;;;3.50;99.90;;;;;;5079826;28;38338;-81
2022/02/13 07:00:57;;;;;;;11.53;7.30;;;3.60;99.90;;;;;;5077403;27;37850;-80
2022/02/13 07:03:23;;;;;;;16.10;7.43;;;3.60;99.90;;;;;;5075116;27;36713;-80
2022/02/13 07:05:49;;;;;;;12.93;6.57;;;3.60;99.90;;;;;;5076281;28;39274;-80
2022/02/13 07:08:15;;;;;;;12.17;6.97;;;3.60;99.90;;;;;;5072616;28;38707;-80
2022/02/13 07:10:41;;;;;;;13.90;6.70;;;3.60;99.90;;;;;;5075164;28;38698;-80
2022/02/13 07:13:07;;;;;;;13.87;7.40;;;3.60;99.90;;;;;;5068093;27;42369;-79
2022/02/13 07:15:35;;;;;;;10.67;6.80;;;3.70;99.90;;;;;;5072380;27;39876;-80
2022/02/13 07:18:01;;;;;;;11.03;7.13;;;3.70;99.90;;;;;;5073654;27;37040;-79
2022/02/13 07:20:27;;;;;;;9.67;6.70;;;3.70;99.90;;;;;;5074496;27;48879;-80
2022/02/13 07:22:53;;;;;;;9.17;6.67;;;3.70;99.90;;;;;;5077160;27;37368;-80
2022/02/13 07:25:20;;;;;;;12.83;6.77;;;3.70;99.90;;;;;;5069591;27;37668;-80
2022/02/13 07:27:46;;;;;;;14.97;6.83;;;3.70;99.90;;;;;;5071626;27;37175;-79
2022/02/13 07:30:15;;;;;;;11.60;6.73;;;3.70;99.90;;;;;;5074651;27;38764;-81
2022/02/13 07:32:44;;;;;;;13.50;7.30;;;3.70;99.90;;;;;;5074147;28;38566;-79
2022/02/13 07:35:11;;;;;;;13.70;6.47;;;3.80;99.90;;;;;;5068513;27;38996;-79
2022/02/13 07:37:37;;;;;;;9.77;6.33;;;3.80;99.90;;;;;;5090312;27;37537;-79
2022/02/13 07:40:05;;;;;;;10.47;6.73;;;3.80;99.90;;;;;;5078328;27;39948;-79
2022/02/13 07:42:31;;;;;;;11.50;7.33;;;3.80;99.90;;;;;;5074607;27;49017;-79
2022/02/13 07:44:57;;;;;;;13.93;7.50;;;3.80;99.90;;;;;;5075487;28;36569;-80
2022/02/13 07:47:25;;;;;;;10.70;6.70;;;3.90;99.90;;;;;;5078644;27;38924;-80
2022/02/13 07:49:51;;;;;;;9.63;6.43;;;3.90;99.90;;;;;;5078888;28;39464;-79
2022/02/13 07:52:18;;;;;;;11.50;6.50;;;3.90;99.90;;;;;;5082483;27;38876;-80
2022/02/13 07:54:44;;;;;;;10.80;6.87;;;3.90;99.90;;;;;;5080690;28;39032;-80
2022/02/13 07:57:10;;;;;;;8.93;6.80;;;3.90;99.90;;;;;;5079850;27;35883;-79
2022/02/13 07:59:42;;;;;;;9.00;6.70;;;3.90;99.90;;;;;;5078405;27;39823;-80
2022/02/13 08:02:08;;;;;;;11.15;6.72;;;3.90;99.90;;;;;;5068082;28;39162;-80
2022/02/13 08:04:36;;;;;;;13.73;7.17;;;3.90;99.90;;;;;;5078319;27;37878;-79
2022/02/13 08:07:02;;;;;;;11.13;7.17;;;3.90;99.90;;;;;;5078752;27;37385;-80
2022/02/13 08:09:28;;;;;;;10.03;7.13;;;3.90;99.90;;;;;;5075641;28;39642;-79
2022/02/13 08:11:54;;;;;;;12.57;7.00;;;3.90;99.90;;;;;;5074252;27;40121;-79
2022/02/13 08:14:20;;;;;;;10.70;6.13;;;3.90;99.90;;;;;;5079544;27;38545;-80
2022/02/13 08:16:46;;;;;;;12.73;6.10;;;3.90;99.90;;;;;;5069783;28;36042;-81
2022/02/13 08:19:13;;;;;;;13.67;6.77;;;3.90;99.90;;;;;;5071554;27;37680;-79
2022/02/13 08:21:39;;;;;;;12.03;7.43;;;4.00;99.90;;;;;;5079129;28;36602;-79
2022/02/13 08:24:05;;;;;;;13.60;7.10;;;4.00;99.90;;;;;;5082445;27;37879;-80
2022/02/13 08:26:31;;;;;;;9.17;6.03;;;4.00;99.90;;;;;;5076939;27;37132;-81
2022/02/13 08:28:57;;;;;;;10.73;7.00;;;4.00;99.90;;;;;;5084239;28;39879;-82
2022/02/13 08:31:23;;;;;;;10.50;6.13;;;4.00;99.90;;;;;;5074616;27;36870;-80
2022/02/13 08:33:49;;;;;;;9.87;6.67;;;4.00;99.90;;;;;;5076990;28;36589;-79
2022/02/13 08:36:15;;;;;;;10.23;6.10;;;4.10;99.90;;;;;;5075565;28;37116;-80
2022/02/13 08:38:42;;;;;;;11.90;7.23;;;4.10;99.90;;;;;;5073497;28;37634;-81
2022/02/13 08:41:08;;;;;;;10.97;6.63;;;4.20;99.90;;;;;;5076152;27;38618;-80
2022/02/13 08:43:34;;;;;;;9.83;6.33;;;4.20;99.90;;;;;;5078533;27;39403;-79
2022/02/13 08:46:01;;;;;;;13.50;7.33;;;4.30;99.90;;;;;;5078067;28;35959;-78
2022/02/13 08:48:28;;;;;;;16.37;7.00;;;4.40;99.90;;;;;;5076605;28;46293;-78
2022/02/13 08:50:54;;;;;;;11.63;6.73;;;4.40;99.90;;;;;;5084526;27;38546;-79
2022/02/13 08:53:20;;;;;;;9.83;6.07;;;4.30;99.90;;;;;;5085929;27;36350;-80
2022/02/13 08:55:48;;;;;;;12.00;6.80;;;4.40;99.90;;;;;;5084950;27;36510;-80
2022/02/13 08:58:14;;;;;;;11.73;6.33;;;4.40;99.90;;;;;;5086043;27;39031;-79
2022/02/13 09:00:40;;;;;;;8.57;5.90;;;4.50;99.90;;;;;;5082120;28;38577;-79
2022/02/13 09:03:06;;;;;;;10.57;6.67;;;4.50;99.90;;;;;;5081959;27;38063;-79
2022/02/13 09:05:32;;;;;;;12.93;6.77;;;4.50;99.90;;;;;;5088227;28;38651;-79
2022/02/13 09:08:01;;;;;;;10.57;6.60;;;4.50;99.90;;;;;;5076975;28;38241;-79
2022/02/13 09:10:28;;;;;;;10.13;6.57;;;4.60;99.90;;;;;;5074693;27;48641;-80
2022/02/13 09:12:54;;;;;;;12.40;6.87;;;4.70;99.90;;;;;;5075078;27;36956;-79
2022/02/13 09:15:21;;;;;;;9.20;6.47;;;4.70;99.90;;;;;;5077093;27;37316;-79
2022/02/13 09:17:47;;;;;;;12.60;7.53;;;4.70;99.90;;;;;;5080800;27;38919;-79
2022/02/13 09:20:13;;;;;;;11.97;7.30;;;4.70;99.90;;;;;;5078651;27;38905;-79
2022/02/13 09:22:39;;;;;;;11.90;6.80;;;4.70;99.90;;;;;;5082991;28;38456;-79
2022/02/13 09:25:06;;;;;;;11.23;6.70;;;4.70;99.90;;;;;;5088156;27;38040;-79
2022/02/13 09:27:33;;;;;;;10.67;6.43;;;4.60;99.90;;;;;;5089909;27;39819;-82
2022/02/13 09:29:59;;;;;;;10.37;6.53;;;4.60;99.90;;;;;;5080538;28;39779;-79
2022/02/13 09:32:25;;;;;;;10.43;6.80;;;4.60;99.90;;;;;;5078209;28;36971;-78
2022/02/13 09:34:51;;;;;;;8.43;6.23;;;4.60;99.90;;;;;;5079448;28;37505;-78
2022/02/13 09:37:17;;;;;;;11.33;6.70;;;4.60;99.90;;;;;;5078047;27;40031;-78
2022/02/13 09:39:43;;;;;;;16.97;7.20;;;4.70;99.90;;;;;;5078113;28;40155;-78
2022/02/13 09:42:10;;;;;;;14.23;7.63;;;4.70;99.90;;;;;;5075161;27;37862;-77
2022/02/13 09:44:37;;;;;;;11.23;6.93;;;4.80;99.90;;;;;;5075261;28;38963;-78
2022/02/13 09:47:07;;;;;;;12.20;6.80;;;4.80;99.90;;;;;;5101404;27;20044;-79
2022/02/13 09:49:34;;;;;;;12.83;7.37;;;4.90;99.90;;;;;;5082186;28;39400;-78
2022/02/13 09:52:04;;;;;;;10.93;6.97;;;4.90;99.90;;;;;;5076550;27;39012;-77
2022/02/13 09:54:30;;;;;;;11.93;6.87;;;5.00;99.90;;;;;;5077682;27;48703;-78
2022/02/13 09:57:59;;;;;;;10.60;6.57;;;5.00;99.90;;;;;;5071178;27;38671;-78
2022/02/13 09:59:53;;;;;;;8.87;7.10;;;5.10;99.90;;;;;;5081444;27;48384;-78
2022/02/13 10:02:43;;;;;;;13.13;7.30;;;5.10;99.90;;;;;;5071003;28;39258;-77
2022/02/13 10:05:11;;;;;;;15.33;6.80;;;5.10;99.90;;;;;;5069291;28;37133;-77
2022/02/13 10:07:38;;;;;;;10.27;6.73;;;5.30;99.90;;;;;;5074325;27;39618;-77
2022/02/13 10:10:07;;;;;;;12.60;6.43;;;5.20;99.90;;;;;;5076323;27;39910;-76
2022/02/13 10:12:39;;;;;;;14.40;6.80;;;5.20;99.90;;;;;;5069001;28;39048;-78
2022/02/13 10:15:30;;;;;;;9.18;6.88;;;5.30;99.90;;;;;;5071703;27;37068;-77
2022/02/13 10:18:07;;;;;;;9.40;6.53;;;5.30;99.90;;;;;;5063356;28;38828;-77
2022/02/13 10:20:40;;;;;;;9.73;6.70;;;5.30;99.90;;;;;;5064451;28;46864;-79
2022/02/13 10:23:14;;;;;;;11.27;6.77;;;5.40;99.90;;;;;;5070731;28;39897;-77
2022/02/13 10:25:41;;;;;;;12.83;6.93;;;5.50;99.90;;;;;;5074323;27;36611;-78
2022/02/13 10:28:18;;;;;;;10.57;6.30;;;5.50;99.90;;;;;;5068697;28;39304;-80
2022/02/13 10:30:46;;;;;;;10.23;6.00;;;5.50;99.90;;;;;;5077928;27;37488;-77
2022/02/13 10:33:14;;;;;;;8.90;6.23;;;5.50;99.90;;;;;;5075576;27;37852;-78
2022/02/13 10:35:40;;;;;;;12.00;6.43;;;5.50;99.90;;;;;;5079137;28;36764;-77
2022/02/13 10:38:08;;;;;;;10.33;6.10;;;5.50;99.90;;;;;;5075157;28;38705;-77
2022/02/13 10:40:35;;;;;;;9.80;5.83;;;5.60;99.90;;;;;;5078246;27;39605;-80
2022/02/13 10:43:09;;;;;;;8.60;6.67;;;5.70;99.90;;;;;;5078722;28;36769;-78
2022/02/13 10:45:37;;;;;;;9.03;5.83;;;5.70;99.90;;;;;;5074428;27;47293;-77
2022/02/13 10:48:07;;;;;;;7.57;5.63;;;5.80;99.90;;;;;;5079644;28;37430;-78
2022/02/13 10:50:35;;;;;;;8.10;6.00;;;5.80;99.90;;;;;;5075791;27;38506;-80
2022/02/13 10:53:04;;;;;;;9.20;6.13;;;5.90;99.90;;;;;;5077107;28;38966;-79
2022/02/13 10:55:32;;;;;;;11.67;6.13;;;6.00;99.90;;;;;;5077766;28;47307;-78
2022/02/13 10:57:59;;;;;;;10.27;6.30;;;6.00;99.90;;;;;;5081492;28;38006;-81
2022/02/13 11:00:27;;;;;;;10.33;5.37;;;6.00;99.90;;;;;;5075947;28;38219;-80
2022/02/13 11:02:54;;;;;;;13.60;5.97;;;6.00;99.90;;;;;;5079054;28;38754;-78
2022/02/13 11:05:22;;;;;;;8.13;5.80;;;6.10;99.90;;;;;;5070351;27;36667;-78
2022/02/13 11:07:50;;;;;;;10.30;5.53;;;6.20;99.90;;;;;;5080849;28;39345;-79
2022/02/13 11:10:29;;;;;;;11.43;5.77;;;6.30;99.90;;;;;;5075525;27;37888;-80
2022/02/13 11:12:56;;;;;;;10.40;6.00;;;6.50;99.90;;;;;;5080657;27;38236;-80
2022/02/13 11:15:31;;;;;;;8.07;5.70;;;6.40;99.90;;;;;;5069545;28;37720;-78
2022/02/13 11:18:08;;;;;;;10.93;6.07;;;6.50;99.90;;;;;;5081029;28;38557;-80
2022/02/13 11:20:36;;;;;;;10.30;5.30;;;6.50;99.90;;;;;;5049337;28;48325;-80
2022/02/13 11:23:24;;;;;;;9.57;5.93;;;6.60;99.90;;;;;;5080544;27;39371;-81
2022/02/13 11:26:02;;;;;;;9.33;5.50;;;6.70;99.90;;;;;;5076134;27;37826;-80
2022/02/13 11:28:45;;;;;;;8.50;5.40;;;6.90;99.90;;;;;;5090386;28;47497;-79
2022/02/13 11:31:30;;;;;;;9.80;5.53;;;6.90;99.90;;;;;;5093001;27;41534;-80
2022/02/13 11:33:58;;;;;;;8.57;5.10;;;6.90;99.90;;;;;;5078574;28;39635;-81
2022/02/13 11:36:48;;;;;;;9.30;5.17;;;7.00;99.90;;;;;;5080345;27;37826;-81
2022/02/13 11:39:39;;;;;;;6.87;4.97;;;7.00;99.90;;;;;;5085741;27;38557;-80
2022/02/13 11:42:18;;;;;;;8.67;5.30;;;7.10;99.90;;;;;;5105099;27;38952;-81
2022/02/13 11:44:55;;;;;;;13.00;5.97;;;7.10;99.90;;;;;;5087817;27;37809;-79
2022/02/13 11:47:38;;;;;;;9.60;5.63;;;7.10;99.90;;;;;;5093989;27;36841;-80
2022/02/13 11:52:32;;;;;;;8.50;5.40;;;7.20;99.90;;;;;;5083899;27;40104;-80
2022/02/13 11:54:59;;;;;;;8.57;6.23;;;7.30;99.90;;;;;;5084520;27;39335;-80
2022/02/13 11:57:29;;;;;;;9.73;6.77;;;7.40;99.90;;;;;;5080621;27;38559;-81
2022/02/13 11:59:55;;;;;;;7.93;5.97;;;7.50;99.90;;;;;;5082346;28;37860;-80
2022/02/13 12:02:31;;;;;;;10.33;5.57;;;7.50;99.90;;;;;;5078751;27;39246;-80
2022/02/13 12:05:03;;;;;;;10.60;5.93;;;7.60;99.90;;;;;;5084065;27;38557;-81
2022/02/13 12:07:34;;;;;;;9.35;5.50;;;7.80;99.90;;;;;;5082327;27;35630;-81
2022/02/13 12:10:03;;;;;;;8.93;6.20;;;8.00;99.90;;;;;;5092830;27;39183;-81
2022/02/13 12:12:30;;;;;;;8.17;5.87;;;7.90;99.90;;;;;;5083219;27;48275;-81
2022/02/13 12:14:57;;;;;;;13.53;5.63;;;8.00;99.90;;;;;;5078585;28;37440;-81
2022/02/13 12:17:25;;;;;;;9.73;5.87;;;8.20;99.90;;;;;;5083656;27;36964;-80
2022/02/13 12:20:09;;;;;;;8.10;5.30;;;8.20;99.90;;;;;;5077355;27;38352;-80
2022/02/13 12:22:37;;;;;;;8.87;5.57;;;8.20;99.90;;;;;;5081537;27;48801;-80
2022/02/13 12:25:10;;;;;;;9.87;6.00;;;8.20;99.90;;;;;;5085556;27;37788;-81
2022/02/13 12:27:44;;;;;;;10.38;5.57;;;8.10;99.90;;;;;;5083890;27;49062;-81
2022/02/13 12:30:11;;;;;;;12.73;6.20;;;8.10;99.90;;;;;;5091866;27;39949;-80
2022/02/13 12:32:38;;;;;;;9.97;5.63;;;8.10;99.90;;;;;;5074338;28;39376;-81
2022/02/13 12:35:09;;;;;;;14.60;6.13;;;8.00;99.90;;;;;;5093870;27;38147;-80
2022/02/13 12:37:39;;;;;;;9.57;5.57;;;8.10;99.90;;;;;;5042392;28;49274;-80
2022/02/13 12:40:12;;;;;;;10.13;5.40;;;8.10;99.90;;;;;;5033971;28;39611;-84
2022/02/13 12:42:52;;;;;;;7.50;5.00;;;8.20;99.90;;;;;;5036633;28;38815;-80
2022/02/13 12:45:27;;;;;;;9.10;5.63;;;8.20;99.90;;;;;;5034315;28;37281;-81
2022/02/13 12:48:00;;;;;;;9.23;5.70;;;8.20;99.90;;;;;;5085887;28;37590;-80
2022/02/13 12:50:29;;;;;;;9.83;5.60;;;8.30;99.90;;;;;;5080244;27;38072;-80
2022/02/13 12:52:57;;;;;;;8.63;5.70;;;8.30;99.90;;;;;;5088037;27;38356;-79